Sevilla, Morón Air Base (LEMO)

NameMorón Air Base
CitySevilla
CountrySpain
ICAOLEMO
IATAOZP
Altitude27 m
CoordinatesGoogle Map
Live Air TrafficLiveATC.net
METARLEMO 192000Z 07005KT 030V100 9999 -RA SCT050 13/11 Q1016 NOSIG
2019-04-19 20:00:00 Wind: East-Northeast (70°) 2.57 m/s - Visibility: > 10000 m - Weather: Light Rain - Temperature: 13 °C - Dew point: 11 °C - Humidity: 87.8% - Pressure: 1016 hPa
Statistics

The table below shows the detailed information of all flights to/from Sevilla, Morón Air Base (LEMO).

Ident Aircraft Coming fromFrom Going toTo Owner nameOwnerSpotted durationDurationDate
N641GT - B763 - Not Available Not Available CMB535 BOEING 767-300 B763 Shannon, Ireland (EINN) EINN
1165 km
Sevilla, Spain (LEMO) LEMO
1764 km
Atlas Air Atlas Air 02:43:18 02:43:18 Wed, 17 Apr 2019 21:29:10 +0000 17/4/2019 9:29 pm
Thu, 18 Apr 2019 00:12:28 +0000 18/4/2019 12:12 am
N641GT - B763 - Not Available Not Available CMB535 BOEING 767-300 B763 Shannon, Ireland (EINN) EINN
3620 km
Sevilla, Spain (LEMO) LEMO
3523 km
Atlas Air Atlas Air 01:18:28 01:18:28 Wed, 17 Apr 2019 11:28:18 +0000 17/4/2019 11:28 am
Wed, 17 Apr 2019 12:46:46 +0000 17/4/2019 12:46 pm
N641GT - B763 - Not Available Not Available CMB535 BOEING 767-300 B763 Shannon, Ireland (EINN) EINN
2153 km
Sevilla, Spain (LEMO) LEMO
2596 km
Atlas Air Atlas Air 01:17:34 01:17:34 Wed, 17 Apr 2019 05:51:13 +0000 17/4/2019 5:51 am
Wed, 17 Apr 2019 07:08:47 +0000 17/4/2019 7:08 am